Time;durP1;ratioP1;P1;durP2;ratioP2;P2;SDS_P1;SDS_P2;PMS_P1;PMS_P2;Temp;Humidity;BMP_temperature;BMP_pressure;BME280_temperature;BME280_humidity;BME280_pressure;Samples;Min_cycle;Max_cycle;Signal;HPM_P1;HPM_P2
2021/07/10 00:04:22;;;;;;;4.30;3.37;;;;;;;20.44;100.00;94940.13;10572850;28;20422;-76
2021/07/10 00:09:22;;;;;;;4.33;3.93;;;;;;;20.42;100.00;94936.94;10572580;28;20027;-76
2021/07/10 00:14:23;;;;;;;10.70;4.25;;;;;;;20.52;100.00;94928.34;10572285;28;20470;-76
2021/07/10 00:19:24;;;;;;;6.03;3.30;;;;;;;20.55;100.00;94919.50;10570806;28;20022;-76
2021/07/10 00:24:24;;;;;;;5.38;3.40;;;;;;;20.61;100.00;94917.38;10572354;28;20297;-76
2021/07/10 00:29:24;;;;;;;7.43;3.53;;;;;;;20.62;100.00;94910.78;10571239;28;20046;-76
2021/07/10 00:34:25;;;;;;;8.43;4.27;;;;;;;20.53;100.00;94910.84;10572136;28;20023;-76
2021/07/10 00:39:25;;;;;;;7.87;3.87;;;;;;;20.36;100.00;94921.88;10571429;28;20261;-76
2021/07/10 00:44:25;;;;;;;6.00;3.97;;;;;;;20.29;100.00;94925.16;10571253;28;20047;-76
2021/07/10 00:49:26;;;;;;;7.17;4.37;;;;;;;20.03;100.00;94906.19;10571564;28;20462;-76
2021/07/10 00:54:26;;;;;;;7.00;4.43;;;;;;;19.76;100.00;94906.28;10571010;28;20032;-76
2021/07/10 00:59:31;;;;;;;7.90;3.75;;;;;;;19.68;100.00;94901.66;10552455;28;20028;-76
2021/07/10 01:04:32;;;;;;;5.75;4.38;;;;;;;19.64;100.00;94890.59;10571002;28;20406;-76
2021/07/10 01:09:32;;;;;;;7.53;4.80;;;;;;;19.71;100.00;94881.91;10571037;28;20026;-76
2021/07/10 01:14:33;;;;;;;4.63;4.15;;;;;;;19.67;100.00;94863.81;10570552;28;20024;-76
2021/07/10 01:19:33;;;;;;;11.80;5.93;;;;;;;19.65;100.00;94858.69;10553793;28;20719;-76
2021/07/10 01:24:33;;;;;;;3.83;3.40;;;;;;;19.70;100.00;94857.69;10552703;28;20297;-76
2021/07/10 01:29:35;;;;;;;7.97;3.73;;;;;;;19.77;100.00;94866.16;10612837;27;20034;-76
2021/07/10 01:34:36;;;;;;;9.23;3.97;;;;;;;19.76;100.00;94857.19;10621439;27;20015;-76
2021/07/10 01:39:37;;;;;;;5.70;3.35;;;;;;;19.79;100.00;94855.75;10620848;27;20023;-76
2021/07/10 01:44:38;;;;;;;4.20;3.80;;;;;;;19.83;100.00;94850.44;10621245;27;20027;-76
2021/07/10 01:49:39;;;;;;;5.60;4.18;;;;;;;19.82;100.00;94849.66;10620258;27;20481;-76
2021/07/10 01:54:39;;;;;;;9.23;3.93;;;;;;;19.92;100.00;94835.63;10621358;27;20027;-76
2021/07/10 01:59:40;;;;;;;8.60;3.60;;;;;;;19.85;100.00;94832.63;10620005;27;20023;-76
2021/07/10 02:04:45;;;;;;;8.73;4.00;;;;;;;19.77;100.00;94833.44;10616118;27;20268;-76
2021/07/10 02:09:46;;;;;;;7.68;4.22;;;;;;;19.78;100.00;94837.78;10618855;27;20032;-76
2021/07/10 02:14:46;;;;;;;6.38;3.88;;;;;;;19.57;100.00;94835.78;10596393;27;20027;-76
2021/07/10 02:19:46;;;;;;;4.28;3.67;;;;;;;19.50;100.00;94837.44;10558248;28;20044;-76
2021/07/10 02:24:47;;;;;;;4.63;3.80;;;;;;;19.47;100.00;94855.25;10576521;28;20117;-76
2021/07/10 02:29:47;;;;;;;6.83;3.50;;;;;;;19.53;100.00;94850.41;10576908;28;20123;-76
2021/07/10 02:34:47;;;;;;;5.00;3.90;;;;;;;19.52;100.00;94859.69;10576385;28;20284;-76
2021/07/10 02:39:48;;;;;;;6.80;3.33;;;;;;;19.55;100.00;94853.59;10576097;28;20399;-76
2021/07/10 02:44:49;;;;;;;9.43;4.63;;;;;;;19.58;100.00;94850.22;10571592;28;20037;-76
2021/07/10 02:49:49;;;;;;;9.77;4.50;;;;;;;19.58;100.00;94861.13;10568224;28;20282;-76
2021/07/10 02:54:50;;;;;;;5.03;3.20;;;;;;;19.61;100.00;94855.03;10531882;28;20502;-76
2021/07/10 02:59:50;;;;;;;5.93;4.03;;;;;;;19.58;100.00;94855.69;10532397;28;20654;-76
2021/07/10 03:04:51;;;;;;;6.45;4.15;;;;;;;19.43;100.00;94854.28;10533091;28;20280;-76
2021/07/10 03:09:51;;;;;;;4.97;3.87;;;;;;;19.07;100.00;94853.59;10532695;28;20081;-76
2021/07/10 03:14:51;;;;;;;7.13;4.23;;;;;;;19.10;100.00;94860.31;10532357;28;21083;-76
2021/07/10 03:19:52;;;;;;;6.37;4.10;;;;;;;19.01;100.00;94854.91;10532317;28;20024;-76
2021/07/10 03:24:52;;;;;;;11.15;3.95;;;;;;;19.14;100.00;94853.09;10559568;28;20074;-76
2021/07/10 03:29:53;;;;;;;7.57;4.47;;;;;;;19.09;100.00;94845.13;10574303;28;20540;-76
2021/07/10 03:34:53;;;;;;;8.17;4.27;;;;;;;19.13;100.00;94846.84;10574340;28;20032;-76
2021/07/10 03:39:53;;;;;;;10.17;4.67;;;;;;;19.23;100.00;94839.47;10574038;28;20376;-76
2021/07/10 03:44:54;;;;;;;8.60;3.67;;;;;;;19.30;100.00;94837.03;10573354;28;20273;-76
2021/07/10 03:49:55;;;;;;;6.97;4.50;;;;;;;19.26;100.00;94847.00;10572932;28;20421;-76
2021/07/10 03:54:56;;;;;;;7.88;4.63;;;;;;;19.25;100.00;94846.16;10573173;28;20063;-76
2021/07/10 03:59:56;;;;;;;10.13;4.87;;;;;;;19.27;100.00;94845.84;10573066;28;20111;-76
2021/07/10 04:04:56;;;;;;;7.97;3.40;;;;;;;19.39;100.00;94843.22;10572644;28;20283;-76
2021/07/10 04:09:57;;;;;;;6.80;4.90;;;;;;;19.48;100.00;94845.94;10554627;28;20052;-76
2021/07/10 04:15:00;;;;;;;4.67;3.87;;;;;;;19.64;100.00;94838.00;10553645;28;20019;-76
2021/07/10 04:20:01;;;;;;;10.45;4.35;;;;;;;19.82;100.00;94838.75;10572203;28;20106;-76
2021/07/10 04:25:04;;;;;;;22.95;8.02;;;;;;;19.89;100.00;94833.56;10571846;28;20130;-76
2021/07/10 04:30:06;;;;;;;8.57;5.88;;;;;;;20.06;100.00;94826.41;10553552;28;20046;-76
2021/07/10 04:35:08;;;;;;;14.13;5.50;;;;;;;20.44;100.00;94826.28;10553205;28;20080;-76
2021/07/10 04:40:10;;;;;;;10.13;4.53;;;;;;;20.79;100.00;94827.91;10571907;28;20027;-76
2021/07/10 04:45:12;;;;;;;9.55;4.50;;;;;;;21.34;97.75;94831.38;10571214;28;20903;-76
2021/07/10 04:50:14;;;;;;;8.82;4.57;;;;;;;21.58;93.13;94827.88;10571451;28;20023;-76
2021/07/10 04:55:15;;;;;;;8.25;4.30;;;;;;;22.10;89.48;94829.09;10552919;28;20077;-76
2021/07/10 05:00:17;;;;;;;4.47;3.05;;;;;;;22.28;87.02;94832.38;10571619;28;20112;-76
2021/07/10 05:05:17;;;;;;;5.00;3.72;;;;;;;22.73;82.96;94824.28;10572353;28;20470;-76
2021/07/10 05:10:18;;;;;;;9.33;3.20;;;;;;;23.26;80.82;94829.66;10580033;28;20030;-76
2021/07/10 05:15:18;;;;;;;9.40;3.95;;;;;;;23.95;76.20;94826.66;10579327;28;20028;-76
2021/07/10 05:20:19;;;;;;;7.07;3.13;;;;;;;24.15;70.21;94835.75;10578578;28;20042;-76
2021/07/10 05:25:19;;;;;;;5.90;3.03;;;;;;;24.57;69.96;94835.88;10578554;28;20040;-76
2021/07/10 05:30:20;;;;;;;7.63;3.30;;;;;;;25.10;67.60;94833.78;10578498;28;20054;-76
2021/07/10 05:35:22;;;;;;;7.83;2.83;;;;;;;25.75;63.15;94831.00;10578899;28;20102;-76
2021/07/10 05:40:22;;;;;;;4.13;2.72;;;;;;;25.48;61.17;94832.94;10577333;28;20543;-76
2021/07/10 05:45:22;;;;;;;5.27;2.80;;;;;;;26.08;56.65;94842.56;10577682;28;20038;-76
2021/07/10 05:50:23;;;;;;;13.20;3.80;;;;;;;26.97;55.63;94831.16;10574388;28;20023;-76
2021/07/10 05:55:23;;;;;;;5.90;2.30;;;;;;;27.36;52.01;94830.81;10576002;28;20486;-76
2021/07/10 06:00:24;;;;;;;7.18;3.00;;;;;;;27.78;50.25;94837.91;10573376;28;20376;-76
2021/07/10 06:05:25;;;;;;;8.37;2.50;;;;;;;27.97;49.56;94833.31;10516267;28;20115;-76
2021/07/10 06:10:26;;;;;;;5.95;3.33;;;;;;;27.99;48.99;94838.44;10574438;28;20020;-77
2021/07/10 06:15:26;;;;;;;13.77;2.73;;;;;;;28.50;49.11;94831.31;10575838;28;20034;-76
2021/07/10 06:20:27;;;;;;;11.18;3.28;;;;;;;29.20;47.15;94834.00;10575296;28;20554;-77
2021/07/10 06:25:27;;;;;;;4.23;2.23;;;;;;;29.94;43.80;94842.84;10609091;27;20047;-77
2021/07/10 06:30:28;;;;;;;6.73;2.63;;;;;;;30.44;43.05;94842.81;10618135;27;20031;-77
2021/07/10 06:35:28;;;;;;;13.65;2.63;;;;;;;31.40;40.57;94842.06;10614815;27;20027;-76
2021/07/10 06:40:29;;;;;;;4.72;2.10;;;;;;;31.88;38.92;94840.59;10575479;28;20401;-77
2021/07/10 06:45:29;;;;;;;5.45;2.47;;;;;;;31.76;39.53;94839.88;10590570;27;20023;-74
2021/07/10 06:50:29;;;;;;;8.13;2.57;;;;;;;32.27;37.87;94839.47;10600332;27;20505;-76
2021/07/10 06:55:30;;;;;;;3.53;2.60;;;;;;;32.10;37.52;94841.97;10617246;27;20275;-76
2021/07/10 07:00:30;;;;;;;6.60;2.40;;;;;;;32.20;37.60;94834.78;10615297;27;20030;-74
2021/07/10 07:05:30;;;;;;;6.13;2.37;;;;;;;32.96;36.90;94831.19;10598319;27;20019;-74
2021/07/10 07:10:31;;;;;;;7.27;2.50;;;;;;;33.27;37.51;94826.47;10615557;27;20021;-74
2021/07/10 07:15:32;;;;;;;5.47;2.30;;;;;;;33.95;36.85;94829.47;10614732;27;20023;-74
2021/07/10 07:20:32;;;;;;;5.30;2.25;;;;;;;34.76;33.88;94839.59;10614120;27;20030;-74
2021/07/10 07:25:34;;;;;;;7.68;2.47;;;;;;;35.21;34.62;94833.53;10614294;27;20046;-75
2021/07/10 07:30:34;;;;;;;3.70;2.08;;;;;;;36.21;33.14;94826.88;10615673;27;20027;-74
2021/07/10 07:35:35;;;;;;;7.17;3.43;;;;;;;36.56;31.83;94818.00;10612272;27;20023;-74
2021/07/10 07:40:35;;;;;;;6.57;2.57;;;;;;;36.60;31.28;94821.47;10572868;28;20269;-75
2021/07/10 07:45:36;;;;;;;6.18;2.47;;;;;;;36.31;31.82;94807.47;10573174;28;20142;-75
2021/07/10 07:50:36;;;;;;;7.83;1.97;;;;;;;37.29;30.20;94814.81;10572215;28;20032;-75
2021/07/10 07:55:37;;;;;;;5.38;2.15;;;;;;;35.42;32.35;94823.13;10572721;28;20023;-76
2021/07/10 08:00:37;;;;;;;4.80;1.90;;;;;;;35.69;32.58;94814.50;10573163;28;20023;-76
2021/07/10 08:05:38;;;;;;;3.75;2.28;;;;;;;36.47;31.47;94807.44;10571845;28;20917;-76
2021/07/10 08:10:38;;;;;;;5.65;1.98;;;;;;;34.75;33.63;94807.31;10572448;28;20079;-76
2021/07/10 08:15:39;;;;;;;9.97;2.20;;;;;;;36.51;32.83;94796.94;10571843;28;20478;-76
2021/07/10 08:20:39;;;;;;;8.33;2.13;;;;;;;37.55;31.39;94804.41;10571539;28;20348;-76
2021/07/10 08:25:42;;;;;;;6.23;2.43;;;;;;;37.54;30.32;94804.81;10536999;28;20036;-76
2021/07/10 08:30:42;;;;;;;3.70;2.22;;;;;;;37.70;29.37;94799.09;10529229;28;20076;-76
2021/07/10 08:35:43;;;;;;;5.33;1.97;;;;;;;38.21;29.23;94792.66;10527492;28;20012;-76
2021/07/10 08:40:44;;;;;;;4.15;1.80;;;;;;;38.18;28.27;94790.75;10526394;28;20277;-76
2021/07/10 08:45:49;;;;;;;6.75;3.00;;;;;;;38.59;28.39;94785.38;10528164;28;20081;-76
2021/07/10 08:50:50;;;;;;;6.53;2.37;;;;;;;38.16;28.75;94793.22;10529842;28;20064;-76
2021/07/10 08:55:51;;;;;;;7.32;2.10;;;;;;;38.95;27.63;94789.72;10529201;28;20450;-76
2021/07/10 09:00:52;;;;;;;6.77;1.47;;;;;;;39.58;27.37;94782.09;10529314;28;20107;-76
2021/07/10 09:05:55;;;;;;;4.53;2.10;;;;;;;40.63;25.91;94778.59;10510542;28;20333;-76
2021/07/10 09:10:57;;;;;;;2.95;1.85;;;;;;;40.09;26.65;94771.66;10502059;28;20122;-76
2021/07/10 09:16:15;;;;;;;3.15;1.85;;;;;;;39.85;26.88;94780.63;10510427;28;20048;-76
2021/07/10 09:21:48;;;;;;;3.15;2.00;;;;;;;39.10;27.44;94773.88;10528802;28;20035;-76
2021/07/10 09:26:52;;;;;;;7.38;2.30;;;;;;;39.25;28.30;94770.53;10528429;28;20113;-76
2021/07/10 09:31:55;;;;;;;4.00;2.08;;;;;;;39.19;27.64;94767.53;10529353;28;20100;-75
2021/07/10 09:37:08;;;;;;;4.40;1.75;;;;;;;40.81;25.92;94758.06;10526505;28;20528;-75
2021/07/10 09:42:13;;;;;;;7.68;2.50;;;;;;;38.95;27.23;94767.22;10527073;28;20036;-75
2021/07/10 09:47:15;;;;;;;4.00;1.88;;;;;;;39.67;27.32;94753.22;10527647;28;20032;-75
2021/07/10 09:52:22;;;;;;;2.58;1.60;;;;;;;41.89;24.13;94749.44;10530234;28;20450;-75
2021/07/10 09:57:27;;;;;;;5.50;1.85;;;;;;;41.47;24.56;94742.56;10534907;28;20036;-75
2021/07/10 10:02:30;;;;;;;2.75;1.90;;;;;;;41.69;25.16;94735.91;10535139;28;20063;-75
2021/07/10 10:08:00;;;;;;;2.22;1.60;;;;;;;42.11;24.38;94740.66;10533805;28;20032;-76
2021/07/10 10:13:10;;;;;;;5.38;2.00;;;;;;;38.40;27.47;94745.13;10534356;28;20044;-75
2021/07/10 10:18:13;;;;;;;6.13;2.40;;;;;;;35.48;31.22;94736.75;10534343;28;20470;-75
2021/07/10 10:23:15;;;;;;;2.70;2.50;;;;;;;34.55;33.14;94740.31;10544843;28;20708;-75
2021/07/10 10:28:19;;;;;;;4.72;2.53;;;;;;;35.82;31.04;94733.56;10549436;28;20039;-76
2021/07/10 10:33:20;;;;;;;7.15;2.35;;;;;;;39.29;27.46;94731.81;10548626;28;20111;-76
2021/07/10 10:38:20;;;;;;;5.53;2.22;;;;;;;40.12;26.31;94723.66;10531852;28;20020;-76
2021/07/10 10:43:23;;;;;;;4.32;2.20;;;;;;;41.76;24.39;94731.94;10545251;28;20038;-76
2021/07/10 10:48:42;;;;;;;3.58;1.48;;;;;;;41.35;23.85;94715.38;10550198;28;20042;-76
2021/07/10 10:53:43;;;;;;;4.20;1.70;;;;;;;41.43;23.24;94715.81;10533871;28;20032;-76
2021/07/10 10:58:43;;;;;;;9.57;1.80;;;;;;;37.83;25.93;94728.97;10551829;28;20024;-76
2021/07/10 11:03:43;;;;;;;4.50;2.00;;;;;;;36.05;28.18;94717.78;10541376;28;20418;-76
2021/07/10 11:08:51;;;;;;;6.83;2.80;;;;;;;35.22;29.94;94717.78;10531505;28;20398;-75
2021/07/10 11:14:10;;;;;;;6.07;2.10;;;;;;;33.82;30.65;94718.53;10533019;28;20043;-76
2021/07/10 11:19:10;;;;;;;3.28;2.90;;;;;;;32.53;32.63;94710.81;10551372;28;20028;-76
2021/07/10 11:24:20;;;;;;;2.73;2.53;;;;;;;32.33;33.48;94695.97;10531734;28;20043;-76
2021/07/10 11:29:36;;;;;;;4.82;2.20;;;;;;;32.00;33.24;94692.75;10570291;28;20039;-76
2021/07/10 11:34:40;;;;;;;4.53;2.00;;;;;;;32.43;32.32;94688.69;10575894;28;20398;-76
2021/07/10 11:39:55;;;;;;;7.75;2.40;;;;;;;32.67;32.19;94684.03;10575458;28;20035;-77
2021/07/10 11:45:11;;;;;;;4.63;2.28;;;;;;;32.45;31.01;94670.41;10533052;28;20023;-76
2021/07/10 11:50:16;;;;;;;4.80;2.20;;;;;;;32.50;31.74;94677.47;10533060;28;20421;-76
2021/07/10 11:55:22;;;;;;;3.63;2.30;;;;;;;32.47;31.14;94672.75;10532161;28;20395;-77
2021/07/10 12:00:25;;;;;;;4.47;1.90;;;;;;;31.99;31.51;94675.28;10532640;28;20085;-76
2021/07/10 12:05:26;;;;;;;4.38;2.17;;;;;;;31.25;33.32;94663.66;10533060;28;20032;-77
2021/07/10 12:10:35;;;;;;;13.25;2.60;;;;;;;31.14;33.46;94672.06;10532818;28;20032;-77
2021/07/10 12:15:40;;;;;;;3.33;2.55;;;;;;;31.06;33.99;94671.31;10532588;28;20028;-77
2021/07/10 12:20:48;;;;;;;7.40;2.88;;;;;;;31.13;33.81;94656.59;10514136;28;20035;-77
2021/07/10 12:25:56;;;;;;;4.57;2.65;;;;;;;31.60;33.59;94662.56;10566572;28;20047;-77
2021/07/10 12:30:57;;;;;;;6.50;2.72;;;;;;;31.46;32.84;94663.47;10573713;28;20106;-76
2021/07/10 12:36:16;;;;;;;2.63;2.10;;;;;;;30.99;33.23;94663.81;10534024;28;20031;-77
2021/07/10 12:41:26;;;;;;;4.10;1.90;;;;;;;30.39;34.05;94660.16;10543544;28;20039;-76
2021/07/10 12:46:26;;;;;;;6.28;2.30;;;;;;;30.05;34.68;94654.41;10573434;28;20111;-76
2021/07/10 12:51:26;;;;;;;4.20;2.40;;;;;;;29.76;35.29;94649.69;10554829;28;20027;-77
2021/07/10 12:57:02;;;;;;;2.33;2.07;;;;;;;29.60;35.39;94652.88;10573498;28;20384;-77
2021/07/10 13:01:55;;;;;;;4.68;2.20;;;;;;;29.17;35.83;94644.59;10570428;28;20464;-76
2021/07/10 13:06:59;;;;;;;3.47;2.47;;;;;;;28.86;36.33;94637.84;10573574;28;20068;-76
2021/07/10 13:11:59;;;;;;;3.47;2.58;;;;;;;28.73;36.37;94627.19;10572900;28;20334;-76
2021/07/10 13:17:12;;;;;;;4.23;2.47;;;;;;;28.81;36.09;94617.69;10572699;28;20452;-77
2021/07/10 13:22:12;;;;;;;7.10;2.88;;;;;;;28.88;36.10;94608.63;10569834;28;20297;-77
2021/07/10 13:27:12;;;;;;;3.03;2.00;;;;;;;28.79;37.19;94583.34;10574598;28;20024;-77
2021/07/10 13:32:13;;;;;;;6.10;2.58;;;;;;;28.73;35.82;94582.13;10581355;28;20027;-76
2021/07/10 13:37:13;;;;;;;3.20;2.33;;;;;;;28.72;37.00;94589.66;10581378;28;20106;-76
2021/07/10 13:42:22;;;;;;;4.53;2.23;;;;;;;28.75;37.73;94582.56;10580358;28;20028;-76
2021/07/10 13:47:22;;;;;;;7.78;2.70;;;;;;;28.72;37.78;94584.13;10562850;28;20114;-76
2021/07/10 13:52:30;;;;;;;5.18;2.42;;;;;;;28.56;36.86;94594.75;10579467;28;20069;-76
2021/07/10 13:57:40;;;;;;;4.32;2.35;;;;;;;28.43;36.99;94589.59;10578455;28;20155;-76
2021/07/10 14:02:59;;;;;;;4.97;2.25;;;;;;;28.47;37.18;94575.78;10577154;28;20108;-76
2021/07/10 14:08:13;;;;;;;3.03;2.60;;;;;;;28.61;36.01;94570.25;10571343;28;20788;-76
2021/07/10 14:13:16;;;;;;;2.78;2.13;;;;;;;28.49;37.34;94567.88;10534314;28;20036;-76
2021/07/10 14:18:17;;;;;;;3.40;2.67;;;;;;;28.48;38.44;94569.03;10541954;27;20085;-76
2021/07/10 14:23:22;;;;;;;7.38;2.47;;;;;;;28.63;39.21;94572.66;10578685;27;20100;-76
2021/07/10 14:28:22;;;;;;;8.43;2.35;;;;;;;28.64;38.23;94563.97;10576815;28;20040;-76
2021/07/10 14:33:23;;;;;;;3.53;2.23;;;;;;;28.91;38.72;94562.78;10571942;27;20478;-76
2021/07/10 14:38:23;;;;;;;3.87;2.53;;;;;;;28.86;38.37;94558.44;10556090;27;20111;-76
2021/07/10 14:43:23;;;;;;;3.40;3.07;;;;;;;28.77;38.48;94558.84;10587016;27;20269;-76
2021/07/10 14:48:24;;;;;;;4.40;2.87;;;;;;;28.67;38.79;94542.25;10575345;28;20516;-76
2021/07/10 14:53:24;;;;;;;3.33;2.93;;;;;;;28.41;38.80;94539.44;10576403;28;20038;-76
2021/07/10 14:58:24;;;;;;;5.77;2.80;;;;;;;28.26;38.61;94529.56;10575197;28;20026;-76
2021/07/10 15:03:25;;;;;;;5.90;2.83;;;;;;;28.11;38.68;94515.69;10580771;27;20546;-79
2021/07/10 15:08:25;;;;;;;4.30;2.80;;;;;;;28.10;39.10;94508.59;10574018;27;20032;-76
2021/07/10 15:13:26;;;;;;;4.30;2.77;;;;;;;28.09;39.78;94515.31;10548550;28;20081;-76
2021/07/10 15:18:26;;;;;;;6.50;3.42;;;;;;;28.00;39.87;94503.84;10561508;27;20028;-76
2021/07/10 15:23:27;;;;;;;4.80;2.33;;;;;;;27.97;39.87;94510.91;10573102;27;20055;-76
2021/07/10 15:28:27;;;;;;;5.17;2.90;;;;;;;27.84;40.75;94506.13;10554378;28;20039;-76
2021/07/10 15:33:28;;;;;;;11.27;3.10;;;;;;;27.82;41.40;94509.28;10531296;28;20120;-77
2021/07/10 15:38:28;;;;;;;6.63;3.50;;;;;;;27.81;41.69;94502.16;10558526;27;20035;-76
2021/07/10 15:43:28;;;;;;;5.67;2.70;;;;;;;27.86;43.16;94489.97;10567755;27;20122;-76
2021/07/10 15:48:29;;;;;;;5.25;3.15;;;;;;;27.91;43.25;94495.91;10572034;28;20482;-76
2021/07/10 15:53:29;;;;;;;8.53;3.27;;;;;;;27.79;43.17;94502.56;10529052;28;20028;-76
2021/07/10 15:58:30;;;;;;;4.30;3.13;;;;;;;27.80;42.83;94511.66;10529274;28;20638;-76
2021/07/10 16:03:31;;;;;;;7.70;3.17;;;;;;;27.67;42.39;94505.69;10529171;28;20756;-76
2021/07/10 16:08:32;;;;;;;6.73;2.97;;;;;;;27.71;42.66;94516.75;10528871;28;20036;-77
2021/07/10 16:13:32;;;;;;;4.43;2.70;;;;;;;27.80;43.01;94526.25;10528436;28;20039;-76
2021/07/10 16:18:33;;;;;;;7.05;3.03;;;;;;;27.70;42.94;94545.53;10528831;28;20471;-76
2021/07/10 16:23:33;;;;;;;4.15;3.33;;;;;;;27.34;44.00;94559.94;10537665;28;20054;-77
2021/07/10 16:28:34;;;;;;;3.83;3.10;;;;;;;27.30;44.23;94567.41;10569429;28;20036;-77
2021/07/10 16:33:36;;;;;;;8.13;3.58;;;;;;;27.31;44.83;94562.66;10570688;28;20839;-77
2021/07/10 16:38:36;;;;;;;5.28;3.05;;;;;;;27.30;45.70;94578.44;10552464;28;20023;-77
2021/07/10 16:43:37;;;;;;;4.93;3.30;;;;;;;27.32;45.39;94570.53;10558728;28;20028;-76
2021/07/10 16:48:37;;;;;;;9.60;3.20;;;;;;;27.43;45.95;94574.22;10564368;27;20031;-76
2021/07/10 16:53:38;;;;;;;8.73;3.28;;;;;;;27.35;46.60;94571.75;10568499;28;20023;-75
2021/07/10 16:58:38;;;;;;;5.53;3.08;;;;;;;27.31;46.22;94574.50;10584965;27;20055;-76
2021/07/10 17:03:39;;;;;;;6.00;4.63;;;;;;;27.08;46.21;94572.75;10594337;27;20406;-76
2021/07/10 17:08:39;;;;;;;6.28;3.22;;;;;;;26.94;48.04;94575.44;10582888;28;20043;-75
2021/07/10 17:13:39;;;;;;;9.03;3.77;;;;;;;26.88;49.23;94583.25;10591317;28;20034;-76
2021/07/10 17:18:41;;;;;;;4.87;3.57;;;;;;;26.92;48.14;94581.31;10610872;27;20771;-76
2021/07/10 17:23:41;;;;;;;3.95;3.38;;;;;;;26.81;48.23;94590.69;10599462;28;20048;-76
2021/07/10 17:28:42;;;;;;;4.55;3.42;;;;;;;26.53;47.55;94605.78;10554888;28;20036;-76
2021/07/10 17:33:43;;;;;;;7.60;5.20;;;;;;;26.32;47.77;94598.06;10594369;28;20082;-75
2021/07/10 17:38:44;;;;;;;4.18;3.25;;;;;;;26.23;48.22;94612.16;10593094;28;20454;-75
2021/07/10 17:43:44;;;;;;;12.38;3.85;;;;;;;26.01;49.63;94611.09;10576490;28;20027;-75
2021/07/10 17:48:45;;;;;;;4.47;3.47;;;;;;;25.85;49.62;94614.06;10577653;28;20032;-75
2021/07/10 17:53:46;;;;;;;10.20;2.83;;;;;;;25.69;50.06;94622.50;10549808;28;20020;-77
2021/07/10 17:58:47;;;;;;;3.53;2.83;;;;;;;25.55;51.46;94620.34;10532832;28;20020;-75
2021/07/10 18:03:47;;;;;;;8.80;3.10;;;;;;;25.55;52.67;94623.91;10521466;28;20554;-75
2021/07/10 18:08:47;;;;;;;6.67;3.53;;;;;;;25.49;53.49;94630.88;10526108;28;20032;-75
2021/07/10 18:13:49;;;;;;;5.47;2.80;;;;;;;25.42;53.63;94648.09;10529280;28;20032;-75
2021/07/10 18:18:52;;;;;;;4.60;3.17;;;;;;;25.20;53.15;94643.41;10533408;28;20490;-76
2021/07/10 18:23:53;;;;;;;9.15;3.38;;;;;;;25.14;51.00;94642.13;10552438;27;20075;-75
2021/07/10 18:28:54;;;;;;;16.63;5.10;;;;;;;25.00;52.65;94646.22;10590735;27;20032;-76
2021/07/10 18:33:54;;;;;;;6.87;2.63;;;;;;;25.00;52.03;94662.72;10595961;27;20444;-76
2021/07/10 18:38:54;;;;;;;7.50;4.10;;;;;;;24.87;55.14;94670.38;10584115;27;20020;-76
2021/07/10 18:43:55;;;;;;;5.90;3.10;;;;;;;24.70;55.74;94685.41;10583610;27;20277;-76
2021/07/10 18:48:55;;;;;;;6.50;3.55;;;;;;;24.68;58.36;94687.69;10574647;28;20470;-76
2021/07/10 18:53:56;;;;;;;9.10;3.47;;;;;;;24.43;61.57;94709.19;10575327;28;20130;-76
2021/07/10 18:58:56;;;;;;;8.23;3.65;;;;;;;24.55;64.10;94719.25;10574427;28;20012;-78
2021/07/10 19:03:57;;;;;;;8.48;3.85;;;;;;;24.42;68.39;94723.28;10554520;28;20474;-78
2021/07/10 19:08:58;;;;;;;13.95;3.75;;;;;;;24.36;67.66;94736.53;10574557;28;20023;-76
2021/07/10 19:13:58;;;;;;;4.77;3.80;;;;;;;24.41;69.10;94739.00;10574842;28;20027;-76
2021/07/10 19:18:59;;;;;;;11.40;3.60;;;;;;;24.29;71.12;94741.88;10554382;28;20093;-76
2021/07/10 19:23:59;;;;;;;7.37;3.87;;;;;;;24.25;70.50;94752.78;10532106;28;20087;-76
2021/07/10 19:28:59;;;;;;;5.13;3.97;;;;;;;24.12;71.68;94751.34;10584826;27;20032;-76
2021/07/10 19:34:00;;;;;;;9.53;3.40;;;;;;;24.01;73.29;94753.84;10600771;27;20810;-76
2021/07/10 19:39:01;;;;;;;7.32;4.38;;;;;;;24.00;75.15;94750.31;10616289;27;20026;-76
2021/07/10 19:44:02;;;;;;;4.82;3.97;;;;;;;23.89;65.79;94749.28;10616414;27;20038;-76
2021/07/10 19:49:03;;;;;;;6.07;4.30;;;;;;;23.85;66.53;94751.91;10599825;27;20118;-76
2021/07/10 19:54:03;;;;;;;7.67;4.10;;;;;;;23.74;65.38;94748.13;10575071;28;20034;-76
2021/07/10 19:59:04;;;;;;;10.10;5.53;;;;;;;23.62;65.42;94749.03;10573853;28;20039;-77
2021/07/10 20:04:05;;;;;;;7.82;4.00;;;;;;;23.66;65.29;94749.91;10573701;28;20273;-77
2021/07/10 20:09:05;;;;;;;8.05;4.90;;;;;;;23.58;71.60;94753.63;10554376;28;20034;-76
2021/07/10 20:14:05;;;;;;;8.00;5.27;;;;;;;23.39;78.51;94751.63;10572055;28;20028;-76
2021/07/10 20:19:06;;;;;;;7.10;4.33;;;;;;;23.29;80.17;94763.94;10563636;28;20102;-76
2021/07/10 20:24:06;;;;;;;4.30;3.50;;;;;;;23.12;80.00;94756.88;10570953;28;20107;-76
2021/07/10 20:29:07;;;;;;;5.90;4.07;;;;;;;22.86;79.90;94752.63;10552221;28;20114;-77
2021/07/10 20:34:07;;;;;;;4.67;3.37;;;;;;;22.58;85.32;94763.63;10566427;28;20265;-76
2021/07/10 20:39:08;;;;;;;7.00;4.70;;;;;;;22.57;87.52;94761.25;10569217;27;20047;-76
2021/07/10 20:44:08;;;;;;;7.80;4.50;;;;;;;22.29;92.19;94770.22;10580032;27;20038;-76
2021/07/10 20:49:09;;;;;;;11.38;4.40;;;;;;;22.19;89.96;94758.59;10575549;27;20114;-76
2021/07/10 20:54:09;;;;;;;11.77;4.03;;;;;;;22.17;88.59;94760.09;10568681;28;20072;-76
2021/07/10 20:59:10;;;;;;;6.57;4.25;;;;;;;22.12;85.04;94752.16;10570460;28;20028;-77
2021/07/10 21:04:10;;;;;;;5.45;3.60;;;;;;;22.04;82.99;94756.59;10590130;27;20387;-76
2021/07/10 21:09:18;;;;;;;22.63;6.63;;;;;;;22.02;83.17;94743.25;10580261;28;20031;-76
2021/07/10 21:14:20;;;;;;;4.70;3.38;;;;;;;21.89;76.53;94749.91;10612965;27;20035;-76
2021/07/10 21:19:20;;;;;;;8.57;3.88;;;;;;;21.86;78.41;94753.31;10578379;28;20502;-76
2021/07/10 21:24:21;;;;;;;5.87;3.30;;;;;;;21.80;73.27;94746.50;10533037;28;20055;-76
2021/07/10 21:29:21;;;;;;;5.00;3.70;;;;;;;21.85;86.18;94741.59;10527894;28;20173;-76
2021/07/10 21:34:22;;;;;;;4.32;3.53;;;;;;;21.42;89.57;94748.44;10546195;28;20024;-76
2021/07/10 21:39:22;;;;;;;5.37;3.80;;;;;;;21.53;84.96;94754.28;10539393;28;20040;-76
2021/07/10 21:44:22;;;;;;;4.30;3.53;;;;;;;21.47;81.86;94752.88;10510393;28;20024;-77
2021/07/10 21:49:23;;;;;;;3.40;3.10;;;;;;;21.38;81.86;94742.06;10532506;28;20024;-76
2021/07/10 21:54:25;;;;;;;7.60;3.60;;;;;;;21.32;82.01;94749.72;10536356;28;20039;-76
2021/07/10 21:59:25;;;;;;;4.53;3.10;;;;;;;21.29;83.48;94755.84;10536271;28;20082;-76
2021/07/10 22:04:26;;;;;;;6.63;4.07;;;;;;;21.15;84.42;94739.78;10535633;28;20035;-76
2021/07/10 22:09:26;;;;;;;3.40;2.90;;;;;;;20.98;86.25;94740.00;10535552;28;20025;-76
2021/07/10 22:14:27;;;;;;;11.50;3.45;;;;;;;20.88;85.97;94737.72;10535502;28;20035;-76
2021/07/10 22:19:27;;;;;;;5.68;3.50;;;;;;;20.83;84.86;94733.25;10546100;28;20038;-76
2021/07/10 22:24:27;;;;;;;4.40;3.43;;;;;;;20.74;78.84;94727.09;10540427;28;20834;-76
2021/07/10 22:29:28;;;;;;;8.32;3.22;;;;;;;20.70;77.70;94724.22;10577218;28;20301;-76
2021/07/10 22:34:28;;;;;;;7.10;3.15;;;;;;;20.64;78.33;94726.34;10577029;28;20087;-76
2021/07/10 22:39:29;;;;;;;5.90;2.67;;;;;;;20.57;76.84;94719.84;10558207;28;20031;-76
2021/07/10 22:44:30;;;;;;;11.68;3.72;;;;;;;20.40;79.20;94715.34;10577015;28;20019;-76
2021/07/10 22:49:31;;;;;;;5.68;3.13;;;;;;;20.29;80.32;94709.53;10576663;28;20120;-76
2021/07/10 22:54:32;;;;;;;3.97;2.90;;;;;;;20.15;80.63;94710.63;10577020;28;20165;-76
2021/07/10 22:59:32;;;;;;;4.90;3.30;;;;;;;20.24;78.98;94702.34;10575645;28;20024;-76
2021/07/10 23:04:32;;;;;;;4.13;3.03;;;;;;;20.24;78.83;94687.91;10575931;28;20027;-76
2021/07/10 23:09:33;;;;;;;5.28;2.50;;;;;;;20.28;79.30;94689.63;10575495;28;20282;-76
2021/07/10 23:14:34;;;;;;;5.50;3.30;;;;;;;20.13;83.71;94685.56;10574874;28;20023;-76
2021/07/10 23:19:34;;;;;;;4.22;2.92;;;;;;;20.01;84.67;94680.09;10575745;28;20034;-76